Time;durP1;ratioP1;P1;durP2;ratioP2;P2;SDS_P1;SDS_P2;PMS_P1;PMS_P2;Temp;Humidity;BMP_temperature;BMP_pressure;BME280_temperature;BME280_humidity;BME280_pressure;Samples;Min_cycle;Max_cycle;Signal;HPM_P1;HPM_P2
2023/10/14 00:01:34;;;;;;;6.70;2.00;;;16.80;99.90;;;;;;5052356;28;20033;-79
2023/10/14 00:04:04;;;;;;;8.30;2.63;;;16.80;99.90;;;;;;5030659;28;20034;-80
2023/10/14 00:06:34;;;;;;;7.28;2.40;;;16.80;99.90;;;;;;5040967;28;20037;-79
2023/10/14 00:09:01;;;;;;;6.47;2.50;;;16.80;99.90;;;;;;5047448;28;20017;-79
2023/10/14 00:11:35;;;;;;;6.25;2.65;;;16.80;99.90;;;;;;5037340;28;20050;-79
2023/10/14 00:14:09;;;;;;;3.90;2.22;;;16.90;99.90;;;;;;5037447;28;20044;-79
2023/10/14 00:16:36;;;;;;;6.80;2.53;;;16.90;99.90;;;;;;5044703;28;20037;-79
2023/10/14 00:19:09;;;;;;;4.88;2.55;;;16.80;99.90;;;;;;5028803;28;20026;-80
2023/10/14 00:21:36;;;;;;;7.45;2.63;;;16.80;99.90;;;;;;5027292;28;20044;-80
2023/10/14 00:24:06;;;;;;;5.55;2.35;;;16.90;99.90;;;;;;5042416;28;20105;-80
2023/10/14 00:26:33;;;;;;;3.45;2.22;;;16.90;99.90;;;;;;5025512;28;20483;-80
2023/10/14 00:31:42;;;;;;;4.70;2.20;;;16.90;99.90;;;;;;5040578;28;20025;-79
2023/10/14 00:34:08;;;;;;;6.72;2.58;;;16.90;99.90;;;;;;5043117;28;20136;-79
2023/10/14 00:36:34;;;;;;;7.45;2.65;;;16.90;99.90;;;;;;5040570;28;20042;-79
2023/10/14 00:39:12;;;;;;;3.60;2.10;;;16.90;99.90;;;;;;5039748;28;20026;-81
2023/10/14 00:41:39;;;;;;;8.95;2.45;;;16.90;99.90;;;;;;5027630;28;20034;-79
2023/10/14 00:44:05;;;;;;;6.15;2.63;;;17.00;99.90;;;;;;5020730;28;20022;-81
2023/10/14 00:46:33;;;;;;;8.57;3.03;;;17.00;99.90;;;;;;5027563;28;20121;-80
2023/10/14 00:49:10;;;;;;;5.75;2.75;;;17.00;99.90;;;;;;5021201;28;20034;-82
2023/10/14 00:51:42;;;;;;;8.80;2.90;;;17.00;99.90;;;;;;5024384;28;20057;-81
2023/10/14 00:54:26;;;;;;;5.30;2.47;;;17.10;99.90;;;;;;5030778;28;20116;-80
2023/10/14 00:57:00;;;;;;;5.72;2.38;;;17.00;99.90;;;;;;5024451;28;20049;-82
2023/10/14 00:59:28;;;;;;;5.93;2.30;;;17.00;99.90;;;;;;5031668;28;20668;-81
2023/10/14 01:01:58;;;;;;;5.75;2.47;;;17.00;99.90;;;;;;5035481;28;20482;-79
2023/10/14 01:04:34;;;;;;;8.60;2.20;;;17.00;99.90;;;;;;5034977;28;20080;-80
2023/10/14 01:12:16;;;;;;;5.10;2.58;;;17.00;99.90;;;;;;5036949;28;20036;-79
2023/10/14 01:14:53;;;;;;;4.05;2.42;;;16.90;99.90;;;;;;5037991;28;20032;-79
2023/10/14 01:17:32;;;;;;;5.45;3.10;;;16.90;99.90;;;;;;5031014;28;20063;-80
2023/10/14 01:20:10;;;;;;;6.00;2.22;;;16.90;99.90;;;;;;5029477;28;20026;-80
2023/10/14 01:22:43;;;;;;;5.90;2.35;;;16.80;99.90;;;;;;5038796;28;20029;-81
2023/10/14 01:25:14;;;;;;;4.38;2.10;;;16.80;99.90;;;;;;5023938;28;20029;-81
2023/10/14 01:27:43;;;;;;;4.65;2.15;;;16.80;99.90;;;;;;5022355;28;20069;-82
2023/10/14 01:30:12;;;;;;;3.70;2.33;;;16.80;99.90;;;;;;5017748;28;20459;-80
2023/10/14 01:35:31;;;;;;;;;;;16.70;99.90;;;;;;5027213;28;20037;-80
2023/10/14 01:37:59;;;;;;;5.65;2.63;;;16.70;99.90;;;;;;5021197;28;20683;-79
2023/10/14 01:40:30;;;;;;;6.35;2.92;;;16.70;99.90;;;;;;5034186;28;20190;-80
2023/10/14 01:42:57;;;;;;;9.80;2.65;;;16.60;99.90;;;;;;5046024;28;20148;-79
2023/10/14 01:45:31;;;;;;;5.97;2.63;;;16.60;99.90;;;;;;5038320;28;20506;-79
2023/10/14 01:50:45;;;;;;;5.28;2.50;;;16.60;99.90;;;;;;5027098;28;20038;-81
2023/10/14 01:53:12;;;;;;;11.55;2.92;;;16.60;99.90;;;;;;5027178;28;20034;-81
2023/10/14 01:55:41;;;;;;;8.10;2.47;;;16.60;99.90;;;;;;5028913;28;20079;-81
2023/10/14 01:58:10;;;;;;;7.18;2.83;;;16.60;99.90;;;;;;5017530;28;20057;-81
2023/10/14 02:00:38;;;;;;;5.38;2.40;;;16.60;99.90;;;;;;5020320;28;20418;-80
2023/10/14 02:03:07;;;;;;;6.32;2.38;;;16.60;99.90;;;;;;5023152;28;20414;-81
2023/10/14 02:05:39;;;;;;;4.10;2.50;;;16.60;99.90;;;;;;5026367;28;20700;-81
2023/10/14 02:08:13;;;;;;;4.63;2.60;;;16.70;99.90;;;;;;5028297;28;20033;-81
2023/10/14 02:10:47;;;;;;;5.13;2.35;;;16.70;99.90;;;;;;5038688;28;20049;-81
2023/10/14 02:13:17;;;;;;;4.18;2.55;;;16.70;99.90;;;;;;5022608;28;20030;-81
2023/10/14 02:15:46;;;;;;;6.95;3.30;;;16.80;99.90;;;;;;5035787;28;20029;-80
2023/10/14 02:18:20;;;;;;;5.30;2.70;;;16.80;99.90;;;;;;5045318;28;20048;-81
2023/10/14 02:20:56;;;;;;;4.50;2.35;;;16.90;99.90;;;;;;5023659;28;20465;-81
2023/10/14 02:23:30;;;;;;;4.15;2.65;;;16.90;99.90;;;;;;5027170;28;20018;-80
2023/10/14 02:25:56;;;;;;;4.68;2.60;;;16.90;99.90;;;;;;5050830;28;20027;-79
2023/10/14 02:28:29;;;;;;;4.50;2.67;;;16.90;99.90;;;;;;5039138;28;20100;-79
2023/10/14 02:30:59;;;;;;;4.07;2.63;;;16.80;99.90;;;;;;5034674;28;20133;-79
2023/10/14 02:33:26;;;;;;;4.72;2.90;;;16.80;99.90;;;;;;5044433;28;20073;-79
2023/10/14 02:35:55;;;;;;;3.78;2.60;;;16.70;99.90;;;;;;5046213;28;20033;-79
2023/10/14 02:38:24;;;;;;;8.02;2.83;;;16.70;99.90;;;;;;5029683;28;20118;-80
2023/10/14 02:40:50;;;;;;;5.82;2.78;;;16.60;99.90;;;;;;5028832;28;20518;-80
2023/10/14 02:43:16;;;;;;;7.47;2.78;;;16.60;99.90;;;;;;5033560;28;20100;-81
2023/10/14 02:45:45;;;;;;;4.65;2.38;;;16.60;99.90;;;;;;5029754;28;20042;-81
2023/10/14 02:48:11;;;;;;;4.15;2.78;;;16.50;99.90;;;;;;5021981;28;20025;-80
2023/10/14 02:50:37;;;;;;;5.57;2.90;;;16.50;99.90;;;;;;5024630;28;20034;-79
2023/10/14 02:53:21;;;;;;;5.63;2.85;;;16.50;99.90;;;;;;5034328;28;20033;-81
2023/10/14 02:55:57;;;;;;;7.10;2.67;;;16.50;99.90;;;;;;5033541;28;20052;-81
2023/10/14 02:58:23;;;;;;;5.47;2.63;;;16.40;99.90;;;;;;5037678;28;20033;-81
2023/10/14 03:00:58;;;;;;;6.35;2.80;;;16.30;99.90;;;;;;5032650;28;20030;-80
2023/10/14 03:03:24;;;;;;;;;;;16.40;99.90;;;;;;5028227;28;20413;-82
2023/10/14 03:05:53;;;;;;;;;;;16.40;99.90;;;;;;5030064;28;19913;-81
2023/10/14 03:08:20;;;;;;;5.50;2.67;;;16.40;99.90;;;;;;5024214;28;19955;-81
2023/10/14 03:10:53;;;;;;;3.80;2.88;;;16.40;99.90;;;;;;5031578;28;20450;-81
2023/10/14 03:13:19;;;;;;;6.68;2.97;;;16.40;99.90;;;;;;5022837;28;20466;-79
2023/10/14 03:15:52;;;;;;;4.35;2.50;;;16.40;99.90;;;;;;5036258;28;20037;-78
2023/10/14 03:18:19;;;;;;;4.10;2.30;;;16.50;99.90;;;;;;5042375;28;20034;-80
2023/10/14 03:21:23;;;;;;;5.20;2.45;;;16.40;99.90;;;;;;5026495;28;20041;-80
2023/10/14 03:23:38;;;;;;;4.40;2.55;;;16.50;99.90;;;;;;5021083;28;20556;-79
2023/10/14 03:26:13;;;;;;;6.30;2.45;;;16.50;99.90;;;;;;5042621;28;20287;-80
2023/10/14 03:28:41;;;;;;;4.68;2.75;;;16.60;99.90;;;;;;5029914;28;20030;-80
2023/10/14 03:31:14;;;;;;;7.00;2.97;;;16.60;99.90;;;;;;5022398;28;20057;-78
2023/10/14 03:33:43;;;;;;;3.90;2.67;;;16.60;99.90;;;;;;5033232;28;20030;-81
2023/10/14 03:36:15;;;;;;;4.75;3.33;;;16.60;99.90;;;;;;5039375;28;20456;-78
2023/10/14 03:38:42;;;;;;;9.25;3.38;;;16.60;99.90;;;;;;5031401;28;20040;-79
2023/10/14 03:46:15;;;;;;;6.00;3.08;;;16.80;99.90;;;;;;5036785;28;20038;-80
2023/10/14 03:48:48;;;;;;;5.15;3.22;;;16.80;99.90;;;;;;5024175;28;20018;-79
2023/10/14 03:53:54;;;;;;;5.65;3.53;;;16.90;99.90;;;;;;5035985;28;20061;-80
2023/10/14 03:56:21;;;;;;;7.80;3.22;;;17.00;99.90;;;;;;5029671;28;20449;-80
2023/10/14 03:58:49;;;;;;;11.20;3.70;;;17.00;99.90;;;;;;5021702;28;20037;-80
2023/10/14 04:01:22;;;;;;;6.95;3.55;;;17.00;99.90;;;;;;5037483;28;20117;-79
2023/10/14 04:03:52;;;;;;;7.57;3.30;;;17.00;99.90;;;;;;5037697;28;20037;-80
2023/10/14 04:06:21;;;;;;;5.75;3.38;;;17.10;99.90;;;;;;5038479;28;20037;-79
2023/10/14 04:08:48;;;;;;;7.72;3.67;;;17.20;99.90;;;;;;5033855;28;20414;-78
2023/10/14 04:11:25;;;;;;;8.40;3.58;;;17.30;99.90;;;;;;5029556;28;20045;-77
2023/10/14 04:14:04;;;;;;;10.32;3.65;;;17.30;99.90;;;;;;5034417;28;20104;-80
2023/10/14 04:19:27;;;;;;;8.77;4.00;;;17.40;99.90;;;;;;5040504;28;20085;-80
2023/10/14 04:21:59;;;;;;;5.30;3.78;;;17.50;99.90;;;;;;5032771;28;20029;-80
2023/10/14 04:24:44;;;;;;;9.65;4.10;;;17.40;99.90;;;;;;5028713;28;20152;-79
2023/10/14 04:29:51;;;;;;;6.53;3.67;;;17.40;99.90;;;;;;5034689;28;20373;-78
2023/10/14 04:32:42;;;;;;;6.97;3.55;;;17.40;99.90;;;;;;5030347;28;20057;-80
2023/10/14 04:35:08;;;;;;;7.50;3.15;;;17.30;99.90;;;;;;5035754;28;20119;-78
2023/10/14 04:37:52;;;;;;;8.85;3.83;;;17.30;99.90;;;;;;5035280;28;20099;-78
2023/10/14 04:45:52;;;;;;;6.47;3.42;;;17.20;99.90;;;;;;5027354;28;20017;-80
2023/10/14 04:48:26;;;;;;;6.90;3.40;;;17.10;99.90;;;;;;5027341;28;20041;-81
2023/10/14 04:50:58;;;;;;;7.35;3.60;;;17.20;99.90;;;;;;5026156;28;20042;-77
2023/10/14 04:53:27;;;;;;;6.50;3.70;;;17.20;99.90;;;;;;5032212;28;20045;-79
2023/10/14 04:55:53;;;;;;;10.38;3.67;;;17.20;99.90;;;;;;5024474;28;20688;-78
2023/10/14 04:58:25;;;;;;;11.48;4.20;;;17.30;99.90;;;;;;5021034;28;20037;-78
2023/10/14 05:00:52;;;;;;;8.18;3.80;;;17.30;99.90;;;;;;5023575;28;20057;-80
2023/10/14 05:03:21;;;;;;;6.45;4.03;;;17.30;99.90;;;;;;5030552;28;20118;-79
2023/10/14 05:06:14;;;;;;;6.28;4.47;;;17.30;99.90;;;;;;5030491;28;20592;-78
2023/10/14 05:08:44;;;;;;;8.13;4.25;;;17.30;99.90;;;;;;5022381;28;20041;-79
2023/10/14 05:11:15;;;;;;;8.70;4.15;;;17.30;99.90;;;;;;5031248;28;20059;-79
2023/10/14 05:13:44;;;;;;;10.15;4.50;;;17.30;99.90;;;;;;5027405;28;20022;-78
2023/10/14 05:16:20;;;;;;;13.77;4.35;;;17.20;99.90;;;;;;5031560;28;20051;-77
2023/10/14 05:19:01;;;;;;;8.23;4.30;;;17.20;99.90;;;;;;5037751;28;20033;-79
2023/10/14 05:21:42;;;;;;;8.20;4.10;;;17.20;99.90;;;;;;5028915;28;20025;-78
2023/10/14 05:24:10;;;;;;;5.75;4.15;;;17.20;99.90;;;;;;5033326;28;20441;-77
2023/10/14 05:26:44;;;;;;;8.18;4.53;;;17.20;99.90;;;;;;5037670;28;20080;-77
2023/10/14 05:29:22;;;;;;;6.28;4.15;;;17.20;99.90;;;;;;5033419;28;20026;-77
2023/10/14 05:31:50;;;;;;;8.93;4.45;;;17.20;99.90;;;;;;5034982;28;20037;-77
2023/10/14 05:34:17;;;;;;;6.82;4.03;;;17.30;99.90;;;;;;5026950;28;20477;-78
2023/10/14 05:36:44;;;;;;;10.60;4.65;;;17.30;99.90;;;;;;5052658;28;20033;-78
2023/10/14 05:39:10;;;;;;;9.07;4.97;;;17.30;99.90;;;;;;5041093;28;20066;-80
2023/10/14 05:41:39;;;;;;;11.10;5.32;;;17.40;99.90;;;;;;5017779;28;20033;-78
2023/10/14 05:44:08;;;;;;;11.98;4.65;;;17.40;99.90;;;;;;5025774;28;20104;-79
2023/10/14 05:46:34;;;;;;;6.90;4.50;;;17.40;99.90;;;;;;5032933;28;20044;-80
2023/10/14 05:49:01;;;;;;;10.93;5.35;;;17.50;99.90;;;;;;5020933;28;20418;-79
2023/10/14 05:51:27;;;;;;;9.57;4.88;;;17.60;99.90;;;;;;5026572;28;20034;-77
2023/10/14 05:53:52;;;;;;;8.98;4.70;;;17.70;99.90;;;;;;5057638;28;20043;-78
2023/10/14 05:56:19;;;;;;;6.72;5.00;;;17.70;99.90;;;;;;5041605;28;20032;-78
2023/10/14 05:58:45;;;;;;;9.75;4.47;;;17.80;99.90;;;;;;5026873;28;20044;-78
2023/10/14 06:01:13;;;;;;;7.18;4.63;;;17.80;99.90;;;;;;5037129;28;20033;-79
2023/10/14 06:03:43;;;;;;;7.55;4.68;;;17.80;99.90;;;;;;5042570;28;20029;-78
2023/10/14 06:06:09;;;;;;;7.03;4.50;;;17.80;99.90;;;;;;5047775;28;20033;-78
2023/10/14 06:08:38;;;;;;;12.52;5.25;;;17.80;99.90;;;;;;5033461;28;20065;-79
2023/10/14 06:11:05;;;;;;;6.90;4.68;;;17.70;99.90;;;;;;5039146;28;20112;-79
2023/10/14 06:13:34;;;;;;;7.75;5.13;;;17.80;99.90;;;;;;5045437;28;20024;-79
2023/10/14 06:16:06;;;;;;;7.60;4.80;;;17.80;99.90;;;;;;5037947;28;20661;-78
2023/10/14 06:18:32;;;;;;;9.38;4.68;;;17.80;99.90;;;;;;5037311;28;20045;-79
2023/10/14 06:20:59;;;;;;;9.18;4.40;;;17.80;99.90;;;;;;5038684;28;20034;-78
2023/10/14 06:23:28;;;;;;;10.25;4.00;;;17.70;99.90;;;;;;5041693;28;20077;-78
2023/10/14 06:25:57;;;;;;;4.35;3.33;;;17.80;99.90;;;;;;5036053;28;20118;-78
2023/10/14 06:28:23;;;;;;;10.85;3.88;;;17.80;99.90;;;;;;5033422;28;20025;-77
2023/10/14 06:30:48;;;;;;;5.90;2.80;;;17.70;99.90;;;;;;5030177;28;20041;-78
2023/10/14 06:33:14;;;;;;;6.13;3.35;;;17.70;99.90;;;;;;5031816;28;20613;-78
2023/10/14 06:35:43;;;;;;;8.35;3.40;;;17.60;99.90;;;;;;5039993;28;20029;-78
2023/10/14 06:38:17;;;;;;;10.75;3.38;;;17.50;99.90;;;;;;5037186;28;20034;-78
2023/10/14 06:40:44;;;;;;;9.38;3.22;;;17.50;99.90;;;;;;5034818;28;20048;-78
2023/10/14 06:43:10;;;;;;;3.92;2.50;;;17.50;99.90;;;;;;5030511;28;20513;-77
2023/10/14 06:45:37;;;;;;;5.78;3.67;;;17.50;99.90;;;;;;5032185;28;20394;-78
2023/10/14 06:48:05;;;;;;;7.80;3.22;;;17.50;99.90;;;;;;5025517;28;20063;-79
2023/10/14 06:50:32;;;;;;;5.43;3.00;;;17.50;99.90;;;;;;5023310;28;21063;-79
2023/10/14 06:52:59;;;;;;;7.88;3.17;;;17.50;99.90;;;;;;5008472;28;20029;-78
2023/10/14 06:55:33;;;;;;;9.38;3.08;;;17.50;99.90;;;;;;5024103;28;20033;-80
2023/10/14 06:57:59;;;;;;;7.72;3.08;;;17.50;99.90;;;;;;5025431;28;20029;-78
2023/10/14 07:00:32;;;;;;;10.65;3.40;;;17.50;99.90;;;;;;5030565;28;20029;-78
2023/10/14 07:03:12;;;;;;;8.70;3.03;;;17.50;99.90;;;;;;5038064;28;20022;-78
2023/10/14 07:05:43;;;;;;;8.25;3.92;;;17.40;99.90;;;;;;5026285;28;20047;-77
2023/10/14 07:08:12;;;;;;;11.57;3.30;;;17.40;99.90;;;;;;5024176;28;20137;-77
2023/10/14 07:10:39;;;;;;;5.97;3.65;;;17.30;99.90;;;;;;5021540;28;20037;-79
2023/10/14 07:13:05;;;;;;;7.07;2.90;;;17.30;99.90;;;;;;5027849;28;20037;-80
2023/10/14 07:15:35;;;;;;;5.63;3.50;;;17.20;99.90;;;;;;5032303;28;20038;-78
2023/10/14 07:18:01;;;;;;;7.38;3.38;;;17.10;99.90;;;;;;5027543;28;20033;-78
2023/10/14 07:20:29;;;;;;;9.30;3.20;;;17.10;99.90;;;;;;5028198;28;20025;-80
2023/10/14 07:23:00;;;;;;;7.78;3.70;;;17.10;99.90;;;;;;5039165;28;20025;-78
2023/10/14 07:25:37;;;;;;;14.02;3.70;;;17.00;99.90;;;;;;5036682;28;20472;-79
2023/10/14 07:28:07;;;;;;;5.93;3.50;;;17.00;99.90;;;;;;5033506;28;20034;-78
2023/10/14 07:30:34;;;;;;;7.45;3.20;;;16.90;99.90;;;;;;5032801;28;20475;-78
2023/10/14 07:33:01;;;;;;;12.57;3.92;;;16.90;99.90;;;;;;5026258;28;20033;-78
2023/10/14 07:35:27;;;;;;;8.27;3.33;;;16.90;99.90;;;;;;5018539;28;20047;-80
2023/10/14 07:37:53;;;;;;;7.70;3.55;;;16.90;99.90;;;;;;5036043;28;20132;-78
2023/10/14 07:40:23;;;;;;;8.73;3.40;;;16.80;99.90;;;;;;5039729;28;20033;-78
2023/10/14 07:42:59;;;;;;;4.88;3.42;;;16.70;99.90;;;;;;5030041;28;20032;-79
2023/10/14 07:45:28;;;;;;;4.40;2.92;;;16.60;99.90;;;;;;5029797;28;20025;-76
2023/10/14 07:47:58;;;;;;;8.35;3.17;;;16.70;99.90;;;;;;5031079;28;20497;-77
2023/10/14 07:50:24;;;;;;;6.70;3.50;;;16.80;99.90;;;;;;5035815;28;20033;-79
2023/10/14 07:52:54;;;;;;;7.85;3.95;;;16.80;99.90;;;;;;5042430;28;20033;-79
2023/10/14 07:55:25;;;;;;;7.53;3.30;;;16.90;99.90;;;;;;5042354;28;20026;-78
2023/10/14 07:57:51;;;;;;;6.15;3.20;;;17.00;99.90;;;;;;5031620;28;20029;-80
2023/10/14 08:00:17;;;;;;;6.85;3.13;;;17.00;99.90;;;;;;5026517;28;20029;-80
2023/10/14 08:02:43;;;;;;;9.23;3.42;;;17.00;99.90;;;;;;5025398;28;20022;-78
2023/10/14 08:05:10;;;;;;;5.13;3.00;;;17.00;99.90;;;;;;5036276;28;20067;-78
2023/10/14 08:07:40;;;;;;;5.53;3.13;;;17.00;99.90;;;;;;5042253;28;20057;-79
2023/10/14 08:10:18;;;;;;;5.85;2.78;;;17.00;99.90;;;;;;5032253;28;20025;-80
2023/10/14 08:12:50;;;;;;;6.60;2.95;;;17.00;99.90;;;;;;5029566;28;20033;-79
2023/10/14 08:15:18;;;;;;;9.63;3.70;;;17.00;99.90;;;;;;5036964;28;20039;-81
2023/10/14 08:17:45;;;;;;;7.25;2.80;;;17.00;99.90;;;;;;5027863;28;20030;-80
2023/10/14 08:20:18;;;;;;;5.75;3.10;;;17.00;99.90;;;;;;5025121;28;20029;-79
2023/10/14 08:22:45;;;;;;;5.30;2.83;;;17.00;99.90;;;;;;5033663;28;20557;-78
2023/10/14 08:25:12;;;;;;;5.80;2.90;;;17.00;99.90;;;;;;5032604;28;20140;-77
2023/10/14 08:27:40;;;;;;;10.50;3.47;;;17.00;99.90;;;;;;5030289;28;20104;-79
2023/10/14 08:30:13;;;;;;;3.05;2.58;;;17.10;99.90;;;;;;5029466;28;20033;-78
2023/10/14 08:32:40;;;;;;;4.88;2.40;;;17.10;99.90;;;;;;5038605;28;20033;-79
2023/10/14 08:35:15;;;;;;;5.90;2.70;;;17.20;99.90;;;;;;5031728;28;20018;-78
2023/10/14 08:37:49;;;;;;;7.95;3.15;;;17.20;99.90;;;;;;5027742;28;20500;-79
2023/10/14 08:40:19;;;;;;;8.75;2.65;;;17.20;99.90;;;;;;5028005;28;20501;-80
2023/10/14 08:42:49;;;;;;;5.57;2.60;;;17.00;99.90;;;;;;5037905;28;20429;-82
2023/10/14 08:45:22;;;;;;;7.18;3.10;;;16.80;99.90;;;;;;5025319;28;20148;-83
2023/10/14 08:47:54;;;;;;;6.03;2.58;;;16.60;99.90;;;;;;5035713;28;20037;-80
2023/10/14 08:50:24;;;;;;;3.35;2.40;;;16.40;99.90;;;;;;5039873;28;20044;-81
2023/10/14 08:52:56;;;;;;;6.97;2.88;;;16.10;99.90;;;;;;5023049;28;20052;-81
2023/10/14 08:55:22;;;;;;;7.13;2.65;;;16.00;99.90;;;;;;5025413;28;20475;-79
2023/10/14 08:57:49;;;;;;;4.88;2.25;;;15.90;99.90;;;;;;5044138;28;20053;-81
2023/10/14 09:00:23;;;;;;;6.63;2.95;;;15.70;99.90;;;;;;5040688;28;20452;-81
2023/10/14 09:02:54;;;;;;;2.63;2.03;;;15.70;99.90;;;;;;5022987;28;20061;-80
2023/10/14 09:05:21;;;;;;;6.72;2.05;;;15.70;99.90;;;;;;5024722;28;20025;-80
2023/10/14 09:07:49;;;;;;;3.28;1.77;;;15.60;99.90;;;;;;5040546;28;20032;-81
2023/10/14 09:10:18;;;;;;;2.20;2.00;;;15.60;99.90;;;;;;5015838;28;20120;-81
2023/10/14 09:12:57;;;;;;;3.13;2.08;;;15.60;99.90;;;;;;5028449;28;20179;-81
2023/10/14 09:15:28;;;;;;;3.20;2.00;;;15.60;99.90;;;;;;5028453;28;20468;-83
2023/10/14 09:17:55;;;;;;;3.35;1.90;;;15.60;99.90;;;;;;5036207;28;20061;-81
2023/10/14 09:20:38;;;;;;;4.28;1.58;;;15.60;99.90;;;;;;5041776;28;20026;-81
2023/10/14 09:23:32;;;;;;;4.13;1.80;;;15.60;99.90;;;;;;5029540;28;20704;-81
2023/10/14 09:26:00;;;;;;;2.92;1.75;;;15.60;99.90;;;;;;5034925;28;20037;-81
2023/10/14 09:28:28;;;;;;;2.47;1.60;;;15.70;99.90;;;;;;5033697;28;20036;-82
2023/10/14 09:30:57;;;;;;;4.47;1.45;;;15.70;99.90;;;;;;5023108;28;20046;-83
2023/10/14 09:33:43;;;;;;;3.20;1.00;;;15.80;99.90;;;;;;5027833;28;20124;-80
2023/10/14 09:36:14;;;;;;;;;;;15.70;99.90;;;;;;5028229;28;20033;-79
2023/10/14 09:38:41;;;;;;;1.33;0.70;;;15.60;99.90;;;;;;5047632;28;19909;-79
2023/10/14 09:41:10;;;;;;;2.70;0.30;;;15.30;99.90;;;;;;5025263;28;20105;-79
2023/10/14 09:43:42;;;;;;;0.68;0.32;;;15.10;99.90;;;;;;5023113;28;20022;-79
2023/10/14 09:46:11;;;;;;;1.20;0.60;;;14.90;99.90;;;;;;5033040;28;20049;-79
2023/10/14 09:48:38;;;;;;;2.42;0.95;;;14.80;99.90;;;;;;5028874;28;20045;-81
2023/10/14 09:51:06;;;;;;;2.05;0.30;;;14.70;99.90;;;;;;5033758;28;20095;-77
2023/10/14 09:53:36;;;;;;;0.80;0.20;;;14.70;99.90;;;;;;5038665;28;20095;-79
2023/10/14 09:56:05;;;;;;;0.55;0.20;;;14.70;99.90;;;;;;5028515;28;20033;-82
2023/10/14 09:58:36;;;;;;;0.32;0.30;;;14.60;99.90;;;;;;5027340;28;20032;-80
2023/10/14 10:01:04;;;;;;;0.25;0.25;;;14.70;99.90;;;;;;5032240;28;20031;-79
2023/10/14 10:03:39;;;;;;;0.75;0.30;;;14.70;99.90;;;;;;5032910;28;20029;-80
2023/10/14 10:06:20;;;;;;;0.95;0.20;;;14.70;99.90;;;;;;5020985;28;20410;-80
2023/10/14 10:08:55;;;;;;;0.28;0.20;;;14.70;99.90;;;;;;5032941;28;20014;-81
2023/10/14 10:11:25;;;;;;;;;;;14.80;99.90;;;;;;5032111;28;20025;-80
2023/10/14 10:13:53;;;;;;;1.77;0.10;;;14.80;99.90;;;;;;5022943;28;19948;-81
2023/10/14 10:16:22;;;;;;;0.20;0.20;;;14.80;99.90;;;;;;5034246;28;20033;-79
2023/10/14 10:18:56;;;;;;;0.45;0.30;;;14.80;99.90;;;;;;5026318;28;20060;-79
2023/10/14 10:21:32;;;;;;;0.10;0.10;;;14.80;99.90;;;;;;5024943;28;20497;-80
2023/10/14 10:24:23;;;;;;;0.30;0.20;;;14.80;99.90;;;;;;5028607;28;20267;-79
2023/10/14 10:26:57;;;;;;;0.20;0.20;;;14.80;99.90;;;;;;5029842;28;20029;-79
2023/10/14 10:29:23;;;;;;;2.03;0.22;;;14.90;99.90;;;;;;5019627;28;20411;-79
2023/10/14 10:32:09;;;;;;;1.15;0.25;;;14.90;99.90;;;;;;5022009;28;20032;-79
2023/10/14 10:35:06;;;;;;;0.30;0.30;;;15.00;99.90;;;;;;5031232;28;20034;-82
2023/10/14 10:37:41;;;;;;;0.63;0.10;;;15.00;99.90;;;;;;5031635;28;20021;-79
2023/10/14 10:40:11;;;;;;;0.20;0.20;;;15.00;99.90;;;;;;5031409;28;20528;-78
2023/10/14 10:42:47;;;;;;;0.10;0.10;;;15.00;99.90;;;;;;5027088;28;20029;-78
2023/10/14 10:45:29;;;;;;;0.20;0.20;;;15.00;99.90;;;;;;5042848;28;20108;-79
2023/10/14 10:47:59;;;;;;;0.20;0.20;;;15.10;99.90;;;;;;5018483;28;20080;-79
2023/10/14 10:50:39;;;;;;;2.50;0.20;;;15.10;99.90;;;;;;5026392;28;20061;-79
2023/10/14 10:53:08;;;;;;;0.10;0.10;;;15.10;99.90;;;;;;5037349;28;20039;-78
2023/10/14 10:55:42;;;;;;;0.80;0.28;;;15.10;99.90;;;;;;5026051;28;20436;-79
2023/10/14 10:58:13;;;;;;;0.10;0.10;;;15.10;99.90;;;;;;5029044;28;20025;-79
2023/10/14 11:00:45;;;;;;;0.20;0.20;;;15.10;99.90;;;;;;5032624;28;20033;-79
2023/10/14 11:03:14;;;;;;;0.35;0.32;;;15.20;99.90;;;;;;5040676;28;20033;-79
2023/10/14 11:05:41;;;;;;;0.20;0.20;;;15.20;99.90;;;;;;5031079;28;20032;-79
2023/10/14 11:08:08;;;;;;;0.20;0.20;;;15.20;99.90;;;;;;5033047;28;20304;-79
2023/10/14 11:10:42;;;;;;;0.10;0.10;;;15.30;99.90;;;;;;5031314;28;20048;-78
2023/10/14 11:13:13;;;;;;;0.10;0.10;;;15.30;99.90;;;;;;5027251;28;20038;-78
2023/10/14 11:15:40;;;;;;;0.22;0.20;;;15.30;99.90;;;;;;5006579;28;20556;-78
2023/10/14 11:18:10;;;;;;;0.57;0.20;;;15.40;99.90;;;;;;5031433;28;20018;-78
2023/10/14 11:20:44;;;;;;;0.10;0.10;;;15.40;99.90;;;;;;5021060;28;20053;-80
2023/10/14 11:23:11;;;;;;;0.20;0.20;;;15.40;99.90;;;;;;5019496;28;20099;-78
2023/10/14 11:25:44;;;;;;;1.98;0.20;;;15.50;99.90;;;;;;5027726;28;20631;-78
2023/10/14 11:28:14;;;;;;;0.52;0.10;;;15.50;99.90;;;;;;5026878;28;20029;-79
2023/10/14 11:30:41;;;;;;;0.20;0.20;;;15.50;99.90;;;;;;5032142;28;20030;-80
2023/10/14 11:33:12;;;;;;;1.27;0.10;;;15.50;99.90;;;;;;5023453;28;20037;-79
2023/10/14 11:35:38;;;;;;;0.82;0.20;;;15.60;99.90;;;;;;5016952;28;20509;-81
2023/10/14 11:38:07;;;;;;;0.32;0.20;;;15.60;99.90;;;;;;5025022;28;20039;-79
2023/10/14 11:40:37;;;;;;;1.30;0.20;;;15.60;99.90;;;;;;5025619;28;20438;-80
2023/10/14 11:43:11;;;;;;;0.50;0.20;;;15.60;99.90;;;;;;5023720;28;20029;-79
2023/10/14 11:45:44;;;;;;;0.10;0.10;;;15.50;99.90;;;;;;5026311;28;20038;-78
2023/10/14 11:48:33;;;;;;;0.10;0.10;;;15.40;99.90;;;;;;5032210;28;20053;-78
2023/10/14 11:51:03;;;;;;;3.65;0.20;;;15.40;99.90;;;;;;5024828;28;20318;-79
2023/10/14 11:53:32;;;;;;;0.20;0.20;;;15.40;99.90;;;;;;5035743;28;20079;-80
2023/10/14 11:55:59;;;;;;;1.00;0.28;;;15.40;99.90;;;;;;5023985;28;20041;-78
2023/10/14 11:58:33;;;;;;;0.32;0.20;;;15.40;99.90;;;;;;5022550;28;20025;-79
2023/10/14 12:00:59;;;;;;;0.70;0.20;;;15.40;99.90;;;;;;5027110;28;20037;-78
2023/10/14 12:03:25;;;;;;;0.45;0.30;;;15.30;99.90;;;;;;5026302;28;21010;-79
2023/10/14 12:05:57;;;;;;;0.10;0.10;;;15.20;99.90;;;;;;5035431;28;20033;-78
2023/10/14 12:08:25;;;;;;;0.15;0.10;;;15.30;99.90;;;;;;5025149;28;20025;-77
2023/10/14 12:10:52;;;;;;;0.38;0.25;;;15.20;99.90;;;;;;5028178;28;20041;-80
2023/10/14 12:13:18;;;;;;;1.58;0.35;;;15.10;99.90;;;;;;5029255;28;20142;-79
2023/10/14 12:15:45;;;;;;;0.47;0.30;;;15.20;99.90;;;;;;5022562;28;20030;-78
2023/10/14 12:18:13;;;;;;;0.85;0.65;;;15.10;99.90;;;;;;5029375;28;20026;-78
2023/10/14 12:20:46;;;;;;;0.88;0.45;;;15.00;99.90;;;;;;5028414;28;20034;-78
2023/10/14 12:23:18;;;;;;;1.38;0.28;;;15.00;99.90;;;;;;5031960;28;20021;-81
2023/10/14 12:25:48;;;;;;;0.65;0.30;;;15.00;99.90;;;;;;5029846;28;20065;-77
2023/10/14 12:28:35;;;;;;;1.00;0.35;;;14.90;99.90;;;;;;5032058;28;20085;-78
2023/10/14 12:31:03;;;;;;;1.05;0.40;;;15.00;99.90;;;;;;5026038;28;20069;-79
2023/10/14 12:33:35;;;;;;;1.15;0.57;;;15.10;99.90;;;;;;5041742;28;20041;-77
2023/10/14 12:36:06;;;;;;;1.27;0.63;;;15.10;99.90;;;;;;5031301;28;20628;-77
2023/10/14 12:38:32;;;;;;;1.95;0.45;;;15.10;99.90;;;;;;5034123;28;20049;-77
2023/10/14 12:41:02;;;;;;;1.00;0.35;;;15.20;99.90;;;;;;5020420;28;20105;-77
2023/10/14 12:43:32;;;;;;;0.50;0.40;;;15.30;99.90;;;;;;5022266;28;20029;-79
2023/10/14 12:46:19;;;;;;;2.45;0.50;;;15.30;99.90;;;;;;5030464;28;20640;-78
2023/10/14 12:48:50;;;;;;;0.82;0.25;;;15.40;99.90;;;;;;5025317;28;20030;-78
2023/10/14 12:51:18;;;;;;;0.80;0.32;;;15.40;99.90;;;;;;5027301;28;20390;-80
2023/10/14 12:53:47;;;;;;;2.22;0.68;;;15.40;99.90;;;;;;5027938;28;20048;-78
2023/10/14 12:56:21;;;;;;;1.50;0.40;;;15.40;99.90;;;;;;5032580;28;20048;-77
2023/10/14 12:58:48;;;;;;;2.33;0.60;;;15.40;99.90;;;;;;5027027;28;20049;-77
2023/10/14 13:01:19;;;;;;;3.30;0.50;;;15.40;99.90;;;;;;5038952;28;20449;-78
2023/10/14 13:03:53;;;;;;;0.88;0.30;;;15.40;99.90;;;;;;5023141;28;20049;-78
2023/10/14 13:06:26;;;;;;;0.45;0.30;;;15.40;99.90;;;;;;5021357;28;20049;-77
2023/10/14 13:08:54;;;;;;;2.78;0.30;;;15.40;99.90;;;;;;5026053;28;20022;-78
2023/10/14 13:11:20;;;;;;;1.17;0.43;;;15.40;99.90;;;;;;5033464;28;20033;-78
2023/10/14 13:13:50;;;;;;;1.65;0.40;;;15.40;99.90;;;;;;5035928;28;20037;-77
2023/10/14 13:16:20;;;;;;;1.73;0.30;;;15.50;99.90;;;;;;5028184;28;20037;-77
2023/10/14 13:18:49;;;;;;;1.35;0.40;;;15.40;99.90;;;;;;5034245;28;20033;-78
2023/10/14 13:21:19;;;;;;;0.68;0.22;;;15.40;99.90;;;;;;5031466;28;20029;-78
2023/10/14 13:23:48;;;;;;;9.00;0.70;;;15.40;99.90;;;;;;5028079;28;20045;-77
2023/10/14 13:26:17;;;;;;;3.47;0.52;;;15.30;99.90;;;;;;5025552;28;20498;-77
2023/10/14 13:28:45;;;;;;;3.33;0.73;;;15.30;99.90;;;;;;5017489;28;20441;-78
2023/10/14 13:31:15;;;;;;;1.58;0.60;;;15.20;99.90;;;;;;5027481;28;20034;-77
2023/10/14 13:33:47;;;;;;;2.65;0.40;;;15.10;99.90;;;;;;5024354;28;20033;-77
2023/10/14 13:36:21;;;;;;;1.52;0.40;;;15.20;99.90;;;;;;5027606;28;20049;-78
2023/10/14 13:38:52;;;;;;;1.30;0.57;;;15.10;99.90;;;;;;5028841;28;20029;-77